Time;durP1;ratioP1;P1;durP2;ratioP2;P2;SDS_P1;SDS_P2;PMS_P1;PMS_P2;Temp;Humidity;BMP_temperature;BMP_pressure;BME280_temperature;BME280_humidity;BME280_pressure;Samples;Min_cycle;Max_cycle;Signal;HPM_P1;HPM_P2
2023/04/11 00:02:06;;;;;;;5.35;2.50;;;12.20;99.90;;;;;;5027684;28;20566;-65
2023/04/11 00:04:33;;;;;;;4.95;2.75;;;12.20;99.90;;;;;;5028485;28;20466;-63
2023/04/11 00:06:59;;;;;;;5.13;2.90;;;12.20;99.70;;;;;;5026989;28;20091;-63
2023/04/11 00:09:25;;;;;;;4.45;2.15;;;12.10;99.90;;;;;;5032717;28;20396;-66
2023/04/11 00:11:51;;;;;;;4.95;2.20;;;12.20;99.90;;;;;;5049229;28;20465;-63
2023/04/11 00:14:17;;;;;;;4.25;2.20;;;12.40;99.20;;;;;;5052015;28;20044;-64
2023/04/11 00:16:43;;;;;;;4.35;1.98;;;12.60;98.90;;;;;;5064194;28;20031;-63
2023/04/11 00:19:09;;;;;;;4.97;2.00;;;12.70;99.10;;;;;;5063816;28;20444;-64
2023/04/11 00:21:38;;;;;;;6.82;2.00;;;12.60;99.90;;;;;;5051163;28;20042;-64
2023/04/11 00:24:06;;;;;;;3.17;1.92;;;12.60;99.30;;;;;;5047940;28;20067;-63
2023/04/11 00:26:32;;;;;;;5.53;1.92;;;12.70;99.90;;;;;;5061633;28;20033;-63
2023/04/11 00:28:57;;;;;;;6.43;2.38;;;12.80;99.80;;;;;;5062825;28;20089;-64
2023/04/11 00:31:23;;;;;;;4.32;1.75;;;12.80;99.90;;;;;;5058118;28;20035;-66
2023/04/11 00:33:49;;;;;;;4.80;2.10;;;12.80;99.90;;;;;;5067353;28;20037;-70
2023/04/11 00:36:15;;;;;;;4.80;2.03;;;12.80;99.90;;;;;;5061016;28;20772;-63
2023/04/11 00:38:41;;;;;;;3.97;1.90;;;12.70;99.90;;;;;;5069536;28;20032;-63
2023/04/11 00:41:07;;;;;;;6.13;1.60;;;12.50;99.90;;;;;;5066783;28;20269;-63
2023/04/11 00:43:33;;;;;;;3.17;1.73;;;12.40;99.90;;;;;;5069013;28;20032;-64
2023/04/11 00:45:59;;;;;;;3.25;1.77;;;12.40;99.90;;;;;;5069818;28;20055;-62
2023/04/11 00:48:27;;;;;;;6.82;1.83;;;12.40;99.90;;;;;;5070351;28;20032;-67
2023/04/11 00:50:53;;;;;;;5.43;1.95;;;12.50;99.90;;;;;;5051464;28;20118;-63
2023/04/11 00:53:20;;;;;;;7.63;2.00;;;12.70;99.90;;;;;;5054468;28;20684;-63
2023/04/11 00:55:45;;;;;;;5.03;1.70;;;12.70;99.90;;;;;;5055650;28;20032;-64
2023/04/11 00:58:11;;;;;;;4.47;1.60;;;12.70;99.90;;;;;;5031001;28;20034;-65
2023/04/11 01:00:37;;;;;;;4.28;1.88;;;12.60;99.90;;;;;;5061020;28;20036;-64
2023/04/11 01:03:03;;;;;;;4.63;1.50;;;12.60;99.90;;;;;;5049706;28;20033;-67
2023/04/11 01:05:32;;;;;;;4.65;1.55;;;12.60;99.90;;;;;;5050847;28;20070;-63
2023/04/11 01:07:58;;;;;;;6.32;2.17;;;12.60;99.90;;;;;;5049115;28;20033;-64
2023/04/11 01:10:29;;;;;;;5.70;1.60;;;12.60;99.90;;;;;;5050731;28;20151;-63
2023/04/11 01:12:57;;;;;;;4.60;1.73;;;12.60;99.90;;;;;;5050601;28;20021;-64
2023/04/11 01:15:24;;;;;;;6.50;2.00;;;12.60;99.90;;;;;;5049902;28;20037;-63
2023/04/11 01:17:54;;;;;;;9.48;1.73;;;12.60;99.90;;;;;;5049232;28;20029;-69
2023/04/11 01:20:20;;;;;;;6.15;1.90;;;12.50;99.90;;;;;;5050585;28;20087;-64
2023/04/11 01:22:48;;;;;;;5.13;1.60;;;12.40;99.90;;;;;;5051209;28;20552;-65
2023/04/11 01:25:14;;;;;;;5.30;2.10;;;12.30;99.90;;;;;;5050642;28;20120;-63
2023/04/11 01:27:41;;;;;;;3.85;1.60;;;12.20;99.90;;;;;;5069800;28;20036;-65
2023/04/11 01:30:07;;;;;;;6.05;1.55;;;12.20;99.90;;;;;;5058769;28;20053;-64
2023/04/11 01:32:34;;;;;;;5.85;1.98;;;12.20;99.90;;;;;;5039792;28;20111;-63
2023/04/11 01:35:02;;;;;;;5.82;1.90;;;12.20;99.90;;;;;;5057317;28;20508;-64
2023/04/11 01:37:28;;;;;;;5.10;1.77;;;12.10;99.90;;;;;;5059536;28;20040;-62
2023/04/11 01:39:53;;;;;;;7.10;2.20;;;12.00;99.90;;;;;;5063908;28;20025;-66
2023/04/11 01:42:21;;;;;;;3.00;1.60;;;12.00;99.90;;;;;;5050666;28;20082;-62
2023/04/11 01:44:49;;;;;;;4.22;1.63;;;12.00;99.90;;;;;;5049253;28;20673;-63
2023/04/11 01:47:15;;;;;;;6.25;1.67;;;11.90;99.90;;;;;;5049330;28;20124;-65
2023/04/11 01:49:41;;;;;;;5.47;1.70;;;11.80;99.90;;;;;;5049940;28;20125;-64
2023/04/11 01:52:07;;;;;;;4.57;1.80;;;11.80;99.90;;;;;;5049768;28;20059;-65
2023/04/11 01:54:33;;;;;;;10.27;1.92;;;11.90;99.90;;;;;;5049110;28;20041;-62
2023/04/11 01:57:00;;;;;;;5.10;1.73;;;11.80;99.90;;;;;;5030792;28;20029;-62
2023/04/11 01:59:25;;;;;;;5.10;1.98;;;11.70;99.90;;;;;;5067295;28;20036;-63
2023/04/11 02:01:51;;;;;;;6.25;1.98;;;11.70;99.90;;;;;;5061550;28;20039;-68
2023/04/11 02:04:17;;;;;;;3.92;2.15;;;11.70;99.90;;;;;;5049752;28;20470;-64
2023/04/11 02:06:42;;;;;;;7.80;1.85;;;11.70;99.90;;;;;;5050340;28;20021;-62
2023/04/11 02:09:08;;;;;;;2.20;1.58;;;11.70;99.90;;;;;;5049426;28;20060;-62
2023/04/11 02:11:34;;;;;;;5.35;1.90;;;11.80;99.90;;;;;;5048809;28;20116;-62
2023/04/11 02:14:01;;;;;;;4.60;2.28;;;11.70;99.90;;;;;;5052181;28;20140;-64
2023/04/11 02:16:28;;;;;;;8.65;2.10;;;11.70;99.90;;;;;;5055933;28;20037;-63
2023/04/11 02:18:54;;;;;;;4.85;1.80;;;11.60;99.90;;;;;;5044172;28;20124;-69
2023/04/11 02:21:20;;;;;;;4.82;2.17;;;11.50;99.90;;;;;;5068577;28;20143;-64
2023/04/11 02:23:46;;;;;;;3.97;2.13;;;11.40;99.90;;;;;;5065280;28;20514;-65
2023/04/11 02:26:12;;;;;;;4.43;2.20;;;11.40;99.90;;;;;;5064848;28;20029;-64
2023/04/11 02:28:37;;;;;;;4.13;2.13;;;11.30;99.90;;;;;;5056218;28;20461;-64
2023/04/11 02:31:03;;;;;;;5.20;2.20;;;11.20;99.90;;;;;;5050906;28;20030;-63
2023/04/11 02:33:28;;;;;;;4.35;2.10;;;11.20;99.90;;;;;;5053528;28;20729;-64
2023/04/11 02:35:54;;;;;;;9.05;2.50;;;11.20;99.90;;;;;;5050532;28;20025;-70
2023/04/11 02:38:20;;;;;;;7.70;2.35;;;11.20;99.90;;;;;;5054485;28;20094;-63
2023/04/11 02:40:46;;;;;;;2.85;1.92;;;11.10;99.90;;;;;;5060416;28;20033;-65
2023/04/11 02:43:12;;;;;;;6.97;2.58;;;11.10;99.90;;;;;;5057088;28;20460;-67
2023/04/11 02:45:37;;;;;;;6.13;2.50;;;11.10;99.90;;;;;;5064009;28;20104;-63
2023/04/11 02:48:04;;;;;;;8.20;2.92;;;11.10;99.90;;;;;;5048511;28;20060;-63
2023/04/11 02:50:29;;;;;;;5.32;3.05;;;11.00;99.90;;;;;;5063738;28;20056;-63
2023/04/11 02:52:55;;;;;;;7.63;2.78;;;10.90;99.90;;;;;;5069114;28;20029;-69
2023/04/11 02:55:22;;;;;;;5.15;2.72;;;10.80;99.90;;;;;;5050326;28;20048;-66
2023/04/11 02:57:48;;;;;;;6.15;2.53;;;10.70;99.90;;;;;;5042537;28;20038;-64
2023/04/11 03:00:14;;;;;;;5.63;2.72;;;10.60;99.90;;;;;;5045772;28;20180;-63
2023/04/11 03:02:40;;;;;;;7.00;2.72;;;10.60;99.90;;;;;;5051749;28;20473;-64
2023/04/11 03:05:06;;;;;;;11.40;4.05;;;10.40;99.90;;;;;;5065652;28;20646;-63
2023/04/11 03:07:32;;;;;;;7.15;2.97;;;10.30;99.90;;;;;;5053935;28;20029;-63
2023/04/11 03:09:59;;;;;;;6.63;3.40;;;10.30;99.90;;;;;;5044161;28;20134;-70
2023/04/11 03:12:25;;;;;;;6.95;3.22;;;10.20;99.90;;;;;;5043725;28;20024;-66
2023/04/11 03:14:51;;;;;;;6.88;3.20;;;10.20;99.90;;;;;;5047496;28;20587;-65
2023/04/11 03:17:17;;;;;;;9.70;2.60;;;10.10;99.90;;;;;;5059387;28;20288;-64
2023/04/11 03:19:42;;;;;;;5.93;2.30;;;10.00;99.90;;;;;;5059045;28;20037;-63
2023/04/11 03:22:10;;;;;;;5.47;1.80;;;10.00;99.90;;;;;;5045385;28;20039;-63
2023/04/11 03:24:38;;;;;;;4.63;1.88;;;9.90;99.90;;;;;;5044472;28;20036;-66
2023/04/11 03:27:04;;;;;;;3.80;1.70;;;9.90;99.90;;;;;;5048408;28;20029;-63
2023/04/11 03:29:31;;;;;;;3.30;1.77;;;9.80;99.90;;;;;;5050313;28;20036;-63
2023/04/11 03:31:57;;;;;;;4.20;1.40;;;9.80;99.90;;;;;;5051277;28;20453;-70
2023/04/11 03:34:24;;;;;;;2.20;1.33;;;9.80;99.90;;;;;;5050733;28;20032;-63
2023/04/11 03:36:50;;;;;;;2.47;1.10;;;9.70;99.90;;;;;;5049432;28;20408;-65
2023/04/11 03:39:17;;;;;;;5.88;1.50;;;9.60;99.90;;;;;;5047183;28;20033;-65
2023/04/11 03:41:42;;;;;;;1.67;0.88;;;9.60;99.90;;;;;;5046139;28;20028;-64
2023/04/11 03:44:08;;;;;;;2.70;1.20;;;9.50;99.90;;;;;;5048599;28;20029;-63
2023/04/11 03:46:33;;;;;;;3.10;0.90;;;9.50;99.90;;;;;;5047724;28;20025;-63
2023/04/11 03:48:59;;;;;;;3.20;1.10;;;9.50;99.90;;;;;;5047096;28;20091;-69
2023/04/11 03:51:25;;;;;;;2.47;0.80;;;9.50;99.90;;;;;;5046955;28;20516;-65
2023/04/11 03:53:51;;;;;;;1.88;0.88;;;9.40;99.90;;;;;;5045150;28;20084;-65
2023/04/11 03:56:17;;;;;;;2.47;1.10;;;9.30;99.90;;;;;;5046040;28;20610;-64
2023/04/11 03:58:43;;;;;;;2.17;1.08;;;9.30;99.90;;;;;;5028408;28;20086;-63
2023/04/11 04:01:08;;;;;;;2.67;1.02;;;9.30;99.90;;;;;;5045068;28;20358;-63
2023/04/11 04:03:34;;;;;;;2.42;1.15;;;9.30;99.90;;;;;;5047872;28;20082;-63
2023/04/11 04:06:00;;;;;;;1.40;0.82;;;9.20;99.90;;;;;;5041519;28;20063;-67
2023/04/11 04:08:26;;;;;;;2.17;0.90;;;9.20;99.90;;;;;;5048608;28;20061;-65
2023/04/11 04:10:51;;;;;;;2.88;0.90;;;9.10;99.90;;;;;;5045238;28;20473;-62
2023/04/11 04:13:17;;;;;;;2.28;0.80;;;9.10;99.90;;;;;;5032254;28;20029;-64
2023/04/11 04:15:43;;;;;;;4.35;0.90;;;9.10;99.90;;;;;;5029607;28;20038;-62
2023/04/11 04:18:09;;;;;;;5.05;1.00;;;9.10;99.90;;;;;;5046424;28;20102;-66
2023/04/11 04:20:34;;;;;;;1.58;0.85;;;9.00;99.90;;;;;;5043443;28;20025;-64
2023/04/11 04:23:03;;;;;;;3.65;0.85;;;9.00;99.90;;;;;;5047408;28;20527;-68
2023/04/11 04:25:29;;;;;;;4.50;0.98;;;9.00;99.90;;;;;;5040909;28;20382;-63
2023/04/11 04:27:56;;;;;;;4.65;1.08;;;8.90;99.90;;;;;;5034735;28;20033;-62
2023/04/11 04:30:22;;;;;;;3.20;1.00;;;8.90;99.90;;;;;;5045358;28;20017;-64
2023/04/11 04:32:53;;;;;;;3.08;1.10;;;8.90;99.90;;;;;;5046120;28;20036;-62
2023/04/11 04:35:19;;;;;;;1.35;0.75;;;8.80;99.90;;;;;;5045301;28;20712;-62
2023/04/11 04:37:45;;;;;;;3.20;1.08;;;8.80;99.90;;;;;;5038238;28;20032;-64
2023/04/11 04:40:12;;;;;;;3.55;0.93;;;8.80;99.90;;;;;;5044228;28;20033;-64
2023/04/11 04:42:40;;;;;;;2.72;1.00;;;8.80;99.90;;;;;;5047406;28;20033;-62
2023/04/11 04:45:07;;;;;;;2.45;0.90;;;8.70;99.90;;;;;;5042984;28;20445;-65
2023/04/11 04:47:35;;;;;;;2.72;1.23;;;8.70;99.90;;;;;;5045918;28;20037;-64
2023/04/11 04:50:01;;;;;;;3.47;1.40;;;8.80;99.90;;;;;;5044778;28;20039;-67
2023/04/11 04:52:28;;;;;;;2.47;1.30;;;8.80;99.90;;;;;;5041135;28;20037;-63
2023/04/11 04:54:58;;;;;;;2.28;1.13;;;8.80;99.90;;;;;;5040433;28;20461;-63
2023/04/11 04:57:28;;;;;;;3.05;1.38;;;8.80;99.90;;;;;;5029732;28;20017;-66
2023/04/11 04:59:54;;;;;;;6.47;1.60;;;8.80;99.90;;;;;;5044714;28;20535;-63
2023/04/11 05:02:20;;;;;;;3.53;1.40;;;8.80;99.90;;;;;;5045615;28;20040;-61
2023/04/11 05:04:49;;;;;;;3.92;1.30;;;8.80;99.90;;;;;;5049585;28;20029;-64
2023/04/11 05:07:14;;;;;;;4.10;1.70;;;8.80;99.90;;;;;;5050490;28;20029;-64
2023/04/11 05:09:40;;;;;;;4.60;1.88;;;8.80;99.90;;;;;;5047342;28;20507;-65
2023/04/11 05:12:07;;;;;;;3.50;1.70;;;8.80;99.90;;;;;;5061406;28;20485;-65
2023/04/11 05:14:32;;;;;;;3.15;1.80;;;8.80;99.90;;;;;;5059091;28;20048;-62
2023/04/11 05:16:58;;;;;;;2.88;1.58;;;8.80;99.90;;;;;;5043409;28;20381;-63
2023/04/11 05:19:24;;;;;;;7.78;2.10;;;8.90;99.90;;;;;;5046348;28;20127;-62
2023/04/11 05:21:50;;;;;;;5.50;2.22;;;8.90;99.90;;;;;;5042860;28;20480;-64
2023/04/11 05:24:16;;;;;;;2.78;1.55;;;8.90;99.90;;;;;;5044146;28;20051;-64
2023/04/11 05:26:42;;;;;;;3.85;1.90;;;8.90;99.90;;;;;;5062251;28;20033;-63
2023/04/11 05:29:07;;;;;;;6.10;1.75;;;8.90;99.90;;;;;;5059610;28;20461;-63
2023/04/11 05:31:33;;;;;;;3.45;1.40;;;8.90;99.90;;;;;;5051014;28;20025;-62
2023/04/11 05:33:59;;;;;;;4.13;1.90;;;8.80;99.90;;;;;;5048625;28;20036;-64
2023/04/11 05:36:25;;;;;;;6.40;1.88;;;8.80;99.90;;;;;;5050085;28;20021;-62
2023/04/11 05:38:51;;;;;;;5.60;1.98;;;8.70;99.90;;;;;;5049178;28;20039;-63
2023/04/11 05:41:16;;;;;;;4.35;1.30;;;8.70;99.90;;;;;;5048292;28;20100;-63
2023/04/11 05:43:42;;;;;;;3.22;1.17;;;8.70;99.90;;;;;;5050566;28;20029;-62
2023/04/11 05:46:08;;;;;;;2.55;1.40;;;8.50;99.90;;;;;;5048508;28;20496;-62
2023/04/11 05:48:35;;;;;;;4.18;1.17;;;8.50;99.90;;;;;;5050546;28;20029;-64
2023/04/11 05:51:00;;;;;;;3.55;1.60;;;8.40;99.90;;;;;;5049559;28;20051;-63
2023/04/11 05:53:27;;;;;;;5.18;1.58;;;8.30;99.90;;;;;;5047583;28;20116;-64
2023/04/11 05:55:53;;;;;;;4.32;1.50;;;8.30;99.90;;;;;;5050745;28;20021;-62
2023/04/11 05:58:19;;;;;;;4.00;1.42;;;8.20;99.90;;;;;;5048474;28;20440;-62
2023/04/11 06:00:45;;;;;;;1.80;1.10;;;8.20;99.90;;;;;;5050328;28;20553;-63
2023/04/11 06:03:10;;;;;;;3.83;0.98;;;8.10;99.90;;;;;;5047830;28;20032;-63
2023/04/11 06:05:36;;;;;;;4.43;1.48;;;8.10;99.90;;;;;;5031123;28;20033;-66
2023/04/11 06:08:04;;;;;;;3.63;1.00;;;8.00;99.90;;;;;;5042271;28;20047;-65
2023/04/11 06:10:30;;;;;;;2.42;0.90;;;7.90;99.90;;;;;;5049649;28;20033;-63
2023/04/11 06:12:56;;;;;;;5.72;1.15;;;7.90;99.90;;;;;;5050077;28;20028;-66
2023/04/11 06:15:23;;;;;;;3.88;1.30;;;7.80;99.90;;;;;;5049229;28;20033;-63
2023/04/11 06:17:49;;;;;;;3.33;1.20;;;7.80;99.90;;;;;;5047701;28;20025;-64
2023/04/11 06:20:15;;;;;;;2.85;0.93;;;7.80;99.90;;;;;;5049369;28;20041;-61
2023/04/11 06:22:41;;;;;;;3.28;0.98;;;7.80;99.90;;;;;;5046843;28;20121;-62
2023/04/11 06:25:08;;;;;;;4.75;1.50;;;7.70;99.90;;;;;;5049716;28;20029;-66
2023/04/11 06:27:34;;;;;;;7.85;1.83;;;7.70;99.90;;;;;;5049774;28;20076;-61
2023/04/11 06:30:00;;;;;;;4.28;0.98;;;7.70;99.90;;;;;;5048843;28;20094;-61
2023/04/11 06:32:26;;;;;;;2.55;0.95;;;7.60;99.90;;;;;;5046869;28;20057;-62
2023/04/11 06:34:51;;;;;;;3.40;1.00;;;7.60;99.90;;;;;;5047676;28;20068;-62
2023/04/11 06:37:17;;;;;;;3.33;0.90;;;7.50;99.90;;;;;;5038897;28;20064;-63
2023/04/11 06:39:43;;;;;;;4.15;1.20;;;7.40;99.90;;;;;;5048313;28;20025;-62
2023/04/11 06:42:08;;;;;;;5.75;1.50;;;7.40;99.90;;;;;;5047347;28;20035;-69
2023/04/11 06:44:34;;;;;;;3.67;0.82;;;7.40;99.90;;;;;;5049448;28;20094;-64
2023/04/11 06:47:00;;;;;;;7.00;1.35;;;7.40;99.90;;;;;;5047950;28;20545;-65
2023/04/11 06:49:30;;;;;;;4.53;1.23;;;7.40;99.90;;;;;;5048392;28;20029;-65
2023/04/11 06:51:55;;;;;;;3.05;0.98;;;7.30;99.90;;;;;;5048158;28;20084;-63
2023/04/11 06:54:21;;;;;;;7.88;1.27;;;7.30;99.90;;;;;;5048537;28;20068;-64
2023/04/11 06:56:50;;;;;;;2.55;0.73;;;7.20;99.90;;;;;;5049510;28;20055;-64
2023/04/11 06:59:18;;;;;;;2.92;1.08;;;7.20;99.90;;;;;;5047896;28;20572;-63
2023/04/11 07:01:44;;;;;;;2.28;0.90;;;7.20;99.90;;;;;;5046891;28;20135;-63
2023/04/11 07:04:10;;;;;;;3.63;1.10;;;7.30;99.90;;;;;;5042221;28;20033;-68
2023/04/11 07:06:36;;;;;;;7.18;1.33;;;7.20;99.90;;;;;;5037458;28;20080;-63
2023/04/11 07:09:03;;;;;;;2.67;0.88;;;7.20;99.90;;;;;;5049039;28;20036;-65
2023/04/11 07:11:29;;;;;;;1.75;0.75;;;7.10;99.90;;;;;;5046858;28;20025;-64
2023/04/11 07:13:55;;;;;;;5.10;0.73;;;7.10;99.90;;;;;;5048999;28;20041;-63
2023/04/11 07:16:22;;;;;;;3.72;0.85;;;7.10;99.90;;;;;;5048256;28;20110;-65
2023/04/11 07:18:48;;;;;;;3.92;0.75;;;7.20;99.90;;;;;;5047065;28;20071;-62
2023/04/11 07:21:14;;;;;;;1.38;0.80;;;7.20;99.90;;;;;;5041890;28;20445;-63
2023/04/11 07:23:41;;;;;;;5.60;1.20;;;7.20;99.90;;;;;;5048458;28;20167;-63
2023/04/11 07:26:10;;;;;;;5.32;1.20;;;7.20;99.90;;;;;;5049342;28;20116;-62
2023/04/11 07:28:40;;;;;;;4.32;0.90;;;7.30;99.90;;;;;;5048159;28;20158;-63
2023/04/11 07:31:12;;;;;;;4.55;0.80;;;7.50;99.90;;;;;;5063227;28;20036;-65
2023/04/11 07:33:41;;;;;;;2.85;0.88;;;7.60;99.90;;;;;;5048049;28;20037;-64
2023/04/11 07:36:07;;;;;;;6.25;1.30;;;7.60;99.90;;;;;;5042179;28;20122;-65
2023/04/11 07:38:33;;;;;;;3.70;1.38;;;7.60;99.90;;;;;;5040034;28;20102;-64
2023/04/11 07:41:02;;;;;;;5.55;1.50;;;7.70;99.90;;;;;;5042251;28;20397;-61
2023/04/11 07:43:28;;;;;;;5.13;1.17;;;7.80;99.90;;;;;;5039618;28;20060;-63
2023/04/11 07:45:55;;;;;;;2.90;0.95;;;7.90;99.90;;;;;;5043014;28;20029;-63
2023/04/11 07:48:22;;;;;;;4.30;1.20;;;7.90;99.90;;;;;;5041385;28;20032;-65
2023/04/11 07:50:48;;;;;;;3.45;1.25;;;7.90;99.90;;;;;;5041504;28;20724;-63
2023/04/11 07:53:14;;;;;;;3.22;0.95;;;7.90;99.90;;;;;;5042887;28;20036;-68
2023/04/11 07:55:40;;;;;;;4.85;1.30;;;7.90;99.90;;;;;;5040449;28;20122;-62
2023/04/11 07:58:06;;;;;;;4.28;1.30;;;7.90;99.90;;;;;;5041881;28;20476;-64
2023/04/11 08:00:32;;;;;;;4.38;1.10;;;7.90;99.90;;;;;;5040414;28;20680;-67
2023/04/11 08:03:03;;;;;;;7.22;1.90;;;7.90;99.90;;;;;;5043193;28;20492;-62
2023/04/11 08:05:29;;;;;;;7.00;1.50;;;7.90;99.90;;;;;;5039410;28;20040;-62
2023/04/11 08:07:55;;;;;;;6.60;1.10;;;7.90;99.90;;;;;;5041774;28;20103;-63
2023/04/11 08:10:21;;;;;;;7.25;1.40;;;7.90;99.90;;;;;;5040028;28;20029;-67
2023/04/11 08:12:47;;;;;;;5.00;1.33;;;8.10;99.90;;;;;;5040783;28;20873;-63
2023/04/11 08:15:12;;;;;;;5.15;1.20;;;8.10;99.90;;;;;;5040557;28;20040;-65
2023/04/11 08:17:39;;;;;;;4.82;1.75;;;8.10;99.90;;;;;;5041446;28;20083;-67
2023/04/11 08:20:12;;;;;;;5.53;1.08;;;8.20;99.90;;;;;;5042060;28;20025;-62
2023/04/11 08:22:40;;;;;;;3.10;1.33;;;8.20;99.90;;;;;;5039853;28;20028;-62
2023/04/11 08:25:08;;;;;;;3.38;1.30;;;8.30;99.90;;;;;;5041815;28;20035;-63
2023/04/11 08:27:34;;;;;;;4.53;1.23;;;8.60;99.90;;;;;;5039737;28;20638;-67
2023/04/11 08:30:00;;;;;;;6.57;1.40;;;8.50;99.90;;;;;;5041886;28;20099;-63
2023/04/11 08:32:25;;;;;;;5.70;1.05;;;8.60;99.90;;;;;;5040618;28;20107;-62
2023/04/11 08:34:51;;;;;;;4.25;1.30;;;8.60;99.90;;;;;;5045892;28;20481;-63
2023/04/11 08:37:17;;;;;;;4.75;1.30;;;8.60;99.90;;;;;;5044727;28;20525;-66
2023/04/11 08:39:42;;;;;;;8.13;1.85;;;8.70;99.90;;;;;;5046606;28;20029;-62
2023/04/11 08:42:28;;;;;;;4.75;1.52;;;8.90;99.90;;;;;;5047860;28;20029;-62
2023/04/11 08:45:03;;;;;;;6.05;1.38;;;9.00;99.90;;;;;;5047701;28;20094;-62
2023/04/11 08:47:29;;;;;;;8.77;1.67;;;8.80;99.90;;;;;;5046914;28;20025;-63
2023/04/11 08:49:55;;;;;;;5.78;1.80;;;8.60;99.90;;;;;;5047592;28;20066;-66
2023/04/11 08:52:22;;;;;;;8.63;1.95;;;8.50;99.90;;;;;;5045287;28;20589;-63
2023/04/11 08:54:50;;;;;;;9.70;1.90;;;8.50;99.90;;;;;;5038509;28;21801;-64
2023/04/11 08:57:33;;;;;;;7.82;1.73;;;8.60;99.90;;;;;;5051156;28;20037;-68
2023/04/11 09:00:12;;;;;;;7.32;2.10;;;8.70;99.90;;;;;;5045632;28;20756;-64
2023/04/11 09:02:59;;;;;;;7.78;1.52;;;8.70;99.90;;;;;;5034747;28;20796;-63
2023/04/11 09:05:26;;;;;;;6.10;1.80;;;8.90;99.90;;;;;;5047651;28;20062;-62
2023/04/11 09:07:52;;;;;;;10.55;1.95;;;9.00;99.90;;;;;;5050658;28;20097;-62
2023/04/11 09:10:19;;;;;;;11.82;2.00;;;8.90;99.90;;;;;;5049899;28;20037;-67
2023/04/11 09:12:44;;;;;;;9.88;2.03;;;9.10;99.90;;;;;;5040193;28;20036;-61
2023/04/11 09:15:18;;;;;;;8.30;1.48;;;9.20;99.90;;;;;;5049130;28;20045;-64
2023/04/11 09:17:43;;;;;;;5.90;2.08;;;9.40;99.90;;;;;;5043492;28;20032;-63
2023/04/11 09:20:17;;;;;;;5.35;1.52;;;9.60;99.90;;;;;;5042698;28;20101;-66
2023/04/11 09:22:42;;;;;;;7.18;1.40;;;9.70;99.90;;;;;;5043412;28;20033;-63
2023/04/11 09:25:08;;;;;;;7.57;1.80;;;9.70;99.90;;;;;;5045255;28;20033;-69
2023/04/11 09:27:34;;;;;;;10.55;1.20;;;9.90;99.90;;;;;;5044573;28;20033;-63
2023/04/11 09:30:01;;;;;;;5.78;1.52;;;9.90;99.90;;;;;;5043699;28;20025;-64
2023/04/11 09:32:32;;;;;;;7.28;1.25;;;10.10;99.90;;;;;;5044802;28;20108;-69
2023/04/11 09:35:11;;;;;;;10.27;1.67;;;10.00;99.90;;;;;;5049198;28;20045;-63
2023/04/11 09:37:46;;;;;;;9.63;1.33;;;10.30;99.90;;;;;;5032954;28;20245;-64
2023/04/11 09:40:13;;;;;;;9.25;1.30;;;10.40;99.90;;;;;;5034441;28;20063;-63
2023/04/11 09:42:42;;;;;;;10.55;1.75;;;9.90;99.90;;;;;;5048703;28;20032;-63
2023/04/11 09:45:22;;;;;;;4.43;1.10;;;10.00;99.90;;;;;;5046523;28;20493;-62
2023/04/11 09:47:49;;;;;;;7.55;1.50;;;10.20;99.90;;;;;;5049645;28;20048;-64
2023/04/11 09:50:16;;;;;;;6.70;1.52;;;10.40;99.90;;;;;;5048540;28;20579;-62
2023/04/11 09:52:46;;;;;;;12.63;2.75;;;10.20;99.90;;;;;;5050011;28;20036;-62
2023/04/11 09:55:17;;;;;;;6.35;1.60;;;10.40;99.90;;;;;;5049506;28;20507;-63
2023/04/11 09:57:51;;;;;;;7.82;1.30;;;10.80;99.90;;;;;;5050220;28;20075;-62
2023/04/11 10:00:23;;;;;;;9.23;1.50;;;10.80;99.90;;;;;;5039334;28;20469;-68
2023/04/11 10:02:51;;;;;;;5.72;1.08;;;11.10;99.90;;;;;;5030325;28;20044;-62
2023/04/11 10:05:19;;;;;;;5.57;1.58;;;10.90;99.90;;;;;;5030224;28;20045;-67
2023/04/11 10:08:00;;;;;;;7.03;1.85;;;10.60;99.90;;;;;;5039258;28;20032;-65
2023/04/11 10:10:26;;;;;;;12.80;1.48;;;10.30;99.90;;;;;;5031249;28;20029;-66
2023/04/11 10:12:52;;;;;;;8.13;1.42;;;10.20;99.90;;;;;;5030191;28;20104;-62
2023/04/11 10:15:18;;;;;;;8.20;1.30;;;10.30;99.90;;;;;;5032043;28;20057;-69
2023/04/11 10:18:09;;;;;;;6.13;1.35;;;10.10;99.90;;;;;;5048022;28;20557;-62
2023/04/11 10:20:39;;;;;;;9.02;2.03;;;10.00;99.90;;;;;;5040571;28;20025;-65
2023/04/11 10:23:06;;;;;;;4.15;1.40;;;10.50;99.90;;;;;;5059393;28;20028;-64
2023/04/11 10:25:54;;;;;;;7.45;1.40;;;10.80;99.90;;;;;;5044183;28;20136;-64
2023/04/11 10:28:52;;;;;;;7.55;1.20;;;11.10;99.90;;;;;;5042816;28;20480;-69
2023/04/11 10:31:17;;;;;;;8.90;1.23;;;11.20;99.90;;;;;;5013986;28;20037;-62
2023/04/11 10:34:13;;;;;;;7.63;1.63;;;11.00;99.90;;;;;;5048213;28;20159;-67
2023/04/11 10:37:11;;;;;;;5.07;1.13;;;11.50;99.90;;;;;;5028691;28;20034;-64
2023/04/11 10:40:00;;;;;;;9.73;1.42;;;11.80;99.90;;;;;;4994863;28;20064;-64
2023/04/11 10:42:42;;;;;;;6.70;1.42;;;11.40;99.90;;;;;;5028803;28;20037;-63
2023/04/11 10:45:25;;;;;;;4.85;1.33;;;12.00;99.90;;;;;;5046257;28;20033;-63
2023/04/11 10:48:04;;;;;;;5.70;1.48;;;12.20;99.90;;;;;;5048286;28;20036;-65
2023/04/11 10:50:30;;;;;;;6.70;1.40;;;12.40;99.90;;;;;;5030596;28;20053;-63
2023/04/11 10:53:04;;;;;;;4.55;1.45;;;12.20;99.90;;;;;;5029912;28;20040;-65
2023/04/11 10:55:41;;;;;;;12.10;1.67;;;11.50;99.90;;;;;;5045292;28;20386;-65
2023/04/11 10:58:08;;;;;;;7.60;1.65;;;11.00;99.90;;;;;;5048848;28;20116;-63
2023/04/11 11:00:48;;;;;;;3.58;1.02;;;10.70;99.90;;;;;;5047062;28;20494;-63
2023/04/11 11:03:14;;;;;;;4.30;0.80;;;10.70;99.90;;;;;;5047711;28;20032;-63
2023/04/11 11:05:40;;;;;;;7.72;1.00;;;10.80;99.90;;;;;;5048138;28;20059;-65
2023/04/11 11:08:07;;;;;;;4.72;1.00;;;10.90;99.90;;;;;;5035554;28;20037;-66
2023/04/11 11:10:42;;;;;;;5.25;0.95;;;11.40;99.90;;;;;;5048492;28;20090;-64
2023/04/11 11:13:09;;;;;;;7.00;1.00;;;11.80;99.90;;;;;;5047382;28;20033;-66
2023/04/11 11:15:38;;;;;;;5.57;1.20;;;11.50;99.90;;;;;;5046227;28;20105;-64
2023/04/11 11:18:08;;;;;;;2.83;0.70;;;11.40;99.90;;;;;;5048109;28;20529;-65
2023/04/11 11:20:36;;;;;;;5.85;1.00;;;11.70;99.90;;;;;;5047624;28;20022;-64
2023/04/11 11:23:10;;;;;;;6.45;0.90;;;11.70;99.90;;;;;;5048088;28;20045;-67
2023/04/11 11:25:35;;;;;;;5.63;0.80;;;11.70;99.90;;;;;;5047557;28;20040;-64
2023/04/11 11:28:08;;;;;;;5.40;0.80;;;11.40;99.90;;;;;;5045447;28;20029;-65
2023/04/11 11:30:35;;;;;;;10.38;0.93;;;11.10;99.90;;;;;;5044407;28;20067;-63
2023/04/11 11:33:25;;;;;;;6.28;1.08;;;10.90;99.90;;;;;;5047798;28;20032;-67
2023/04/11 11:36:01;;;;;;;11.82;1.20;;;11.00;99.90;;;;;;5048551;28;20119;-65
2023/04/11 11:38:28;;;;;;;5.80;0.73;;;10.90;99.90;;;;;;5045195;28;20043;-71
2023/04/11 11:40:55;;;;;;;3.65;0.98;;;11.10;99.90;;;;;;5047778;28;20024;-67
2023/04/11 11:43:21;;;;;;;3.65;1.05;;;11.40;99.90;;;;;;5046514;28;20037;-65
2023/04/11 11:46:06;;;;;;;3.88;0.80;;;11.40;99.90;;;;;;5047687;28;20139;-66
2023/04/11 11:48:31;;;;;;;11.32;1.10;;;11.20;99.90;;;;;;5045803;28;20036;-65
2023/04/11 11:50:57;;;;;;;4.40;1.13;;;11.00;99.90;;;;;;5048038;28;20037;-63
2023/04/11 11:53:24;;;;;;;4.63;1.00;;;10.90;99.90;;;;;;5047089;28;20052;-65
2023/04/11 11:55:52;;;;;;;3.75;1.20;;;10.80;99.90;;;;;;5047608;28;20051;-64
2023/04/11 11:58:18;;;;;;;5.53;1.05;;;10.80;99.90;;;;;;5044099;28;20036;-63
2023/04/11 12:00:50;;;;;;;5.25;1.58;;;10.70;99.90;;;;;;5047241;28;20266;-63
2023/04/11 12:03:20;;;;;;;9.52;1.30;;;10.80;99.90;;;;;;5047821;28;20560;-62
2023/04/11 12:05:46;;;;;;;4.30;1.30;;;10.80;99.90;;;;;;5045166;28;20028;-65
2023/04/11 12:08:13;;;;;;;3.10;1.02;;;11.20;99.90;;;;;;5046979;28;20071;-65
2023/04/11 12:10:44;;;;;;;4.20;1.23;;;11.60;99.90;;;;;;5047620;28;20037;-63
2023/04/11 12:13:17;;;;;;;3.95;1.13;;;11.40;99.90;;;;;;5047777;28;20793;-63
2023/04/11 12:15:45;;;;;;;5.63;1.38;;;11.10;99.90;;;;;;5047329;28;20036;-63
2023/04/11 12:18:11;;;;;;;9.02;1.30;;;11.10;99.90;;;;;;5047775;28;20056;-65
2023/04/11 12:20:36;;;;;;;4.38;1.13;;;11.60;99.90;;;;;;5044853;28;20052;-65
2023/04/11 12:23:02;;;;;;;6.28;1.33;;;11.90;99.90;;;;;;5044296;28;20033;-64
2023/04/11 12:25:28;;;;;;;6.78;1.05;;;11.50;99.90;;;;;;5044195;28;20065;-68
2023/04/11 12:27:54;;;;;;;4.93;0.82;;;11.50;99.90;;;;;;5046441;28;20029;-64
2023/04/11 12:30:19;;;;;;;7.47;1.25;;;11.50;99.90;;;;;;5046806;28;20028;-64
2023/04/11 12:32:45;;;;;;;5.80;0.98;;;11.90;99.90;;;;;;5046582;28;20543;-64
2023/04/11 12:35:11;;;;;;;3.97;1.13;;;11.90;99.90;;;;;;5046921;28;20037;-64
2023/04/11 12:37:37;;;;;;;2.67;0.80;;;12.10;99.90;;;;;;5045608;28;20041;-66
2023/04/11 12:40:10;;;;;;;7.35;1.83;;;12.40;99.90;;;;;;5046876;28;20036;-62
2023/04/11 12:42:40;;;;;;;4.70;1.10;;;12.50;99.90;;;;;;5045780;28;20033;-66
2023/04/11 12:45:07;;;;;;;9.32;1.60;;;12.60;99.90;;;;;;5047551;28;20025;-65
2023/04/11 12:47:34;;;;;;;6.10;1.15;;;12.40;99.90;;;;;;5046448;28;20029;-63
2023/04/11 12:50:00;;;;;;;4.65;1.30;;;12.20;99.90;;;;;;5047120;28;20388;-63
2023/04/11 12:52:27;;;;;;;5.80;1.15;;;12.50;99.90;;;;;;5047486;28;20520;-64
2023/04/11 12:54:53;;;;;;;4.88;1.30;;;12.50;99.90;;;;;;5045971;28;20048;-62